createdAt,value
2023-04-16T00:00:29.578Z,9.83
2023-04-16T00:02:56.874Z,9.77
2023-04-16T00:05:24.261Z,9.91
2023-04-16T00:07:51.848Z,10.05
2023-04-16T00:10:19.084Z,9.79
2023-04-16T00:12:46.237Z,9.77
2023-04-16T00:15:13.511Z,9.44
2023-04-16T00:17:40.717Z,9.25
2023-04-16T00:20:09.197Z,9.61
2023-04-16T00:22:36.400Z,9.79
2023-04-16T00:25:03.957Z,9.53
2023-04-16T00:27:31.143Z,9.46
2023-04-16T00:29:58.284Z,9.24
2023-04-16T00:32:25.436Z,9.30
2023-04-16T00:34:52.620Z,9.64
2023-04-16T00:37:19.865Z,9.39
2023-04-16T00:39:47.013Z,9.48
2023-04-16T00:42:14.188Z,9.23
2023-04-16T00:44:41.347Z,9.32
2023-04-16T00:47:09.525Z,9.44
2023-04-16T00:49:36.890Z,9.57
2023-04-16T00:52:04.454Z,9.21
2023-04-16T00:54:32.094Z,9.35
2023-04-16T00:57:00.053Z,9.62
2023-04-16T00:59:28.835Z,9.53
2023-04-16T01:01:56.072Z,9.61
2023-04-16T01:04:23.623Z,9.28
2023-04-16T01:06:51.190Z,9.44
2023-04-16T01:09:18.457Z,9.38
2023-04-16T01:11:45.733Z,9.36
2023-04-16T01:14:13.444Z,9.29
2023-04-16T01:16:40.694Z,9.32
2023-04-16T01:19:08.324Z,9.32
2023-04-16T01:21:35.773Z,9.07
2023-04-16T01:24:06.324Z,9.35
2023-04-16T01:26:33.477Z,9.40
2023-04-16T01:29:00.629Z,9.52
2023-04-16T01:31:27.847Z,9.29
2023-04-16T01:33:55.031Z,9.16
2023-04-16T01:36:22.185Z,9.33
2023-04-16T01:38:49.736Z,9.38
2023-04-16T01:41:16.947Z,9.16
2023-04-16T01:43:44.102Z,9.18
2023-04-16T01:46:20.338Z,8.92
2023-04-16T01:48:48.504Z,8.53
2023-04-16T01:51:15.704Z,9.10
2023-04-16T01:53:42.891Z,8.74
2023-04-16T01:56:10.173Z,9.00
2023-04-16T01:58:37.364Z,9.05
2023-04-16T02:01:05.851Z,8.61
2023-04-16T02:03:33.377Z,9.05
2023-04-16T02:06:01.709Z,9.02
2023-04-16T02:08:29.100Z,9.08
2023-04-16T02:10:57.385Z,8.93
2023-04-16T02:13:26.034Z,8.94
2023-04-16T02:15:53.464Z,8.89
2023-04-16T02:18:20.623Z,9.02
2023-04-16T02:20:49.554Z,8.96
2023-04-16T02:23:16.774Z,9.12
2023-04-16T02:25:47.290Z,8.62
2023-04-16T02:28:16.881Z,8.85
2023-04-16T02:30:44.370Z,9.01
2023-04-16T02:33:12.634Z,8.49
2023-04-16T02:35:41.178Z,8.92
2023-04-16T02:38:09.016Z,9.00
2023-04-16T02:40:36.547Z,9.16
2023-04-16T02:43:03.766Z,9.20
2023-04-16T02:45:31.634Z,8.70
2023-04-16T02:50:27.032Z,8.81
2023-04-16T02:52:54.272Z,9.00
2023-04-16T02:55:21.524Z,9.17
2023-04-16T02:57:48.767Z,9.29
2023-04-16T03:00:16.015Z,9.29
2023-04-16T03:02:43.310Z,9.18
2023-04-16T03:05:11.711Z,9.10
2023-04-16T03:07:40.607Z,9.27
2023-04-16T03:10:08.980Z,8.91
2023-04-16T03:12:36.340Z,8.74
2023-04-16T03:15:03.903Z,8.93
2023-04-16T03:17:31.094Z,8.94
2023-04-16T03:19:58.681Z,9.10
2023-04-16T03:22:26.070Z,8.97
2023-04-16T03:24:53.318Z,9.12
2023-04-16T03:27:20.475Z,9.12
2023-04-16T03:29:47.707Z,9.07
2023-04-16T03:32:14.909Z,9.05
2023-04-16T03:34:42.049Z,9.06
2023-04-16T03:37:11.953Z,9.03
2023-04-16T03:39:39.401Z,9.00
2023-04-16T03:42:06.585Z,9.19
2023-04-16T03:44:33.958Z,9.21
2023-04-16T03:47:01.422Z,8.96
2023-04-16T03:49:28.550Z,8.86
2023-04-16T03:51:55.851Z,8.85
2023-04-16T03:54:23.192Z,8.50
2023-04-16T03:56:52.000Z,8.34
2023-04-16T03:59:19.185Z,8.84
2023-04-16T04:01:46.577Z,8.62
2023-04-16T04:04:13.996Z,8.70
2023-04-16T04:06:41.449Z,8.40
2023-04-16T04:09:08.970Z,8.79
2023-04-16T04:11:36.375Z,8.85
2023-04-16T04:14:05.336Z,8.85
2023-04-16T04:16:32.991Z,8.83
2023-04-16T04:19:00.526Z,8.99
2023-04-16T04:21:29.051Z,8.62
2023-04-16T04:23:56.415Z,8.52
2023-04-16T04:26:23.691Z,8.76
2023-04-16T04:28:50.942Z,8.82
2023-04-16T04:31:18.157Z,8.89
2023-04-16T04:33:45.386Z,8.82
2023-04-16T04:36:12.574Z,8.67
2023-04-16T04:38:40.111Z,8.85
2023-04-16T04:41:07.295Z,8.86
2023-04-16T04:43:34.568Z,8.81
2023-04-16T04:46:01.861Z,8.82
2023-04-16T04:48:29.153Z,9.05
2023-04-16T04:50:56.389Z,8.75
2023-04-16T04:53:23.599Z,8.70
2023-04-16T04:55:53.972Z,8.85
2023-04-16T04:58:24.348Z,8.94
2023-04-16T05:00:51.595Z,9.05
2023-04-16T05:03:22.143Z,8.95
2023-04-16T05:05:49.415Z,9.09
2023-04-16T05:08:16.605Z,8.81
2023-04-16T05:10:43.837Z,9.07
2023-04-16T05:13:11.135Z,9.13
2023-04-16T05:15:40.526Z,8.88
2023-04-16T05:18:07.679Z,8.97
2023-04-16T05:20:34.888Z,9.04
2023-04-16T05:23:02.080Z,9.00
2023-04-16T05:25:29.333Z,9.04
2023-04-16T05:27:56.562Z,9.14
2023-04-16T05:30:23.839Z,9.14
2023-04-16T05:32:51.658Z,8.95
2023-04-16T05:35:18.980Z,8.95
2023-04-16T05:37:46.210Z,8.81
2023-04-16T05:40:14.608Z,8.94
2023-04-16T05:42:41.901Z,9.02
2023-04-16T05:45:09.675Z,8.87
2023-04-16T05:47:37.547Z,8.92
2023-04-16T05:50:05.525Z,9.06
2023-04-16T05:52:32.760Z,9.06
2023-04-16T05:55:01.802Z,9.19
2023-04-16T05:57:30.646Z,9.10
2023-04-16T05:59:57.879Z,9.09
2023-04-16T06:02:25.349Z,9.20
2023-04-16T06:04:52.692Z,9.13
2023-04-16T06:07:19.860Z,8.91
2023-04-16T06:09:47.055Z,8.83
2023-04-16T06:12:14.265Z,9.07
2023-04-16T06:14:41.428Z,8.99
2023-04-16T06:17:08.628Z,9.22
2023-04-16T06:19:36.232Z,9.00
2023-04-16T06:22:04.587Z,9.11
2023-04-16T06:24:32.147Z,8.87
2023-04-16T06:26:59.339Z,9.04
2023-04-16T06:29:36.997Z,9.13
2023-04-16T06:32:08.267Z,9.06
2023-04-16T06:34:35.903Z,8.86
2023-04-16T06:37:03.161Z,9.19
2023-04-16T06:39:30.884Z,9.24
2023-04-16T06:41:58.202Z,9.27
2023-04-16T06:44:25.689Z,9.29
2023-04-16T06:46:53.429Z,9.20
2023-04-16T06:49:21.583Z,9.30
2023-04-16T06:51:48.787Z,9.29
2023-04-16T06:54:16.720Z,9.18
2023-04-16T06:56:43.948Z,9.24
2023-04-16T06:59:17.644Z,9.33
2023-04-16T07:01:44.975Z,9.44
2023-04-16T07:04:12.301Z,9.26
2023-04-16T07:06:39.513Z,9.28
2023-04-16T07:09:06.691Z,9.54
2023-04-16T07:11:34.358Z,9.73
2023-04-16T07:14:01.652Z,9.56
2023-04-16T07:16:28.882Z,9.39
2023-04-16T07:18:56.048Z,9.59
2023-04-16T07:21:23.273Z,9.55
2023-04-16T07:23:50.497Z,9.22
2023-04-16T07:26:17.697Z,9.43
2023-04-16T07:28:44.866Z,9.37
2023-04-16T07:31:12.145Z,9.39
2023-04-16T07:33:39.885Z,9.47
2023-04-16T07:36:07.370Z,9.31
2023-04-16T07:38:34.646Z,9.26
2023-04-16T07:41:02.277Z,9.35
2023-04-16T07:43:29.535Z,9.55
2023-04-16T07:45:57.653Z,9.63
2023-04-16T07:48:25.267Z,9.41
2023-04-16T07:50:53.045Z,9.49
2023-04-16T07:53:20.534Z,9.48
2023-04-16T07:55:47.895Z,9.45
2023-04-16T07:58:15.083Z,9.59
2023-04-16T08:00:43.721Z,9.10
2023-04-16T08:03:11.374Z,9.31
2023-04-16T08:05:38.736Z,9.12
2023-04-16T08:08:06.188Z,9.24
2023-04-16T08:10:33.753Z,9.48
2023-04-16T08:13:02.007Z,9.41
2023-04-16T08:15:29.522Z,9.06
2023-04-16T08:17:56.965Z,9.23
2023-04-16T08:20:24.375Z,9.39
2023-04-16T08:22:54.843Z,9.27
2023-04-16T08:25:24.632Z,9.30
2023-04-16T08:27:51.878Z,9.27
2023-04-16T08:30:19.126Z,9.02
2023-04-16T08:32:49.360Z,9.37
2023-04-16T08:35:17.418Z,9.41
2023-04-16T08:37:44.611Z,9.27
2023-04-16T08:40:12.347Z,9.14
2023-04-16T08:42:46.094Z,9.35
2023-04-16T08:45:17.998Z,9.06
2023-04-16T08:47:51.713Z,9.22
2023-04-16T08:50:26.736Z,9.44
2023-04-16T08:53:04.511Z,9.36
2023-04-16T08:55:41.209Z,9.12
2023-04-16T08:58:23.818Z,9.19
2023-04-16T09:00:51.437Z,9.10
2023-04-16T09:03:21.576Z,9.20
2023-04-16T09:05:50.368Z,9.15
2023-04-16T09:08:18.115Z,9.35
2023-04-16T09:10:45.839Z,9.26
2023-04-16T09:13:15.780Z,9.29
2023-04-16T09:15:44.263Z,9.46
2023-04-16T09:18:12.186Z,9.41
2023-04-16T09:20:39.720Z,9.41
2023-04-16T09:23:06.898Z,9.35
2023-04-16T09:25:34.979Z,9.20
2023-04-16T09:28:02.218Z,9.47
2023-04-16T09:30:29.346Z,9.43
2023-04-16T09:33:22.155Z,9.39
2023-04-16T09:35:52.688Z,9.39
2023-04-16T09:38:20.620Z,9.39
2023-04-16T09:40:47.990Z,9.25
2023-04-16T09:43:19.099Z,8.91
2023-04-16T09:45:54.762Z,9.37
2023-04-16T09:48:33.922Z,9.22
2023-04-16T09:51:08.685Z,9.17
2023-04-16T09:53:36.008Z,9.06
2023-04-16T09:56:06.876Z,9.29
2023-04-16T09:58:36.522Z,9.41
2023-04-16T10:01:12.769Z,9.35
2023-04-16T10:03:40.993Z,9.41
2023-04-16T10:06:19.716Z,9.54
2023-04-16T10:08:51.010Z,9.38
2023-04-16T10:11:19.902Z,9.39
2023-04-16T10:13:47.069Z,9.55
2023-04-16T10:16:14.487Z,9.63
2023-04-16T10:18:45.405Z,9.86
2023-04-16T10:21:12.914Z,9.77
2023-04-16T10:23:40.383Z,9.75
2023-04-16T10:26:08.299Z,9.78
2023-04-16T10:28:36.853Z,9.89
2023-04-16T10:31:08.071Z,10.18
2023-04-16T10:33:40.164Z,9.94
2023-04-16T10:36:13.387Z,10.13
2023-04-16T10:38:46.176Z,10.13
2023-04-16T10:41:13.941Z,10.32
2023-04-16T10:43:45.483Z,10.46
2023-04-16T10:46:27.002Z,10.28
2023-04-16T10:48:56.708Z,10.67
2023-04-16T10:51:34.926Z,10.28
2023-04-16T10:54:16.924Z,10.51
2023-04-16T10:56:46.300Z,10.79
2023-04-16T10:59:18.085Z,10.86
2023-04-16T11:01:55.727Z,10.99
2023-04-16T11:04:25.751Z,10.92
2023-04-16T11:07:11.068Z,10.75
2023-04-16T11:09:48.142Z,11.05
2023-04-16T11:12:21.002Z,11.25
2023-04-16T11:14:54.309Z,10.94
2023-04-16T11:17:22.353Z,10.99
2023-04-16T11:19:50.526Z,11.09
2023-04-16T11:22:21.173Z,11.29
2023-04-16T11:24:55.741Z,11.52
2023-04-16T11:27:24.386Z,11.63
2023-04-16T11:30:02.391Z,11.69
2023-04-16T11:32:33.274Z,11.64
2023-04-16T11:35:04.495Z,11.83
2023-04-16T11:37:37.476Z,11.66
2023-04-16T11:40:09.464Z,11.48
2023-04-16T11:42:40.641Z,11.75
2023-04-16T11:45:10.093Z,11.74
2023-04-16T11:47:51.763Z,11.88
2023-04-16T11:50:28.210Z,11.73
2023-04-16T11:53:03.525Z,11.94
2023-04-16T11:55:31.078Z,11.72
2023-04-16T11:58:13.041Z,11.87
2023-04-16T12:00:41.548Z,12.09
2023-04-16T12:03:08.930Z,12.29
2023-04-16T12:05:40.745Z,12.17
2023-04-16T12:08:10.526Z,12.16
2023-04-16T12:10:56.467Z,12.30
2023-04-16T12:13:23.603Z,12.11
2023-04-16T12:15:52.795Z,12.24
2023-04-16T12:18:27.022Z,12.38
2023-04-16T12:20:54.412Z,12.43
2023-04-16T12:23:33.773Z,12.41
2023-04-16T12:26:10.559Z,12.33
2023-04-16T12:28:39.252Z,12.40
2023-04-16T12:31:07.162Z,12.51
2023-04-16T12:33:34.397Z,12.56
2023-04-16T12:36:03.474Z,12.40
2023-04-16T12:38:30.911Z,12.49
2023-04-16T12:40:58.628Z,12.40
2023-04-16T12:43:26.167Z,12.40
2023-04-16T12:45:53.484Z,12.48
2023-04-16T12:48:20.740Z,12.72
2023-04-16T12:50:48.069Z,12.51
2023-04-16T12:53:15.223Z,12.45
2023-04-16T12:55:42.452Z,12.57
2023-04-16T12:58:11.855Z,12.65
2023-04-16T13:00:40.392Z,12.70
2023-04-16T13:03:07.865Z,12.91
2023-04-16T13:05:35.357Z,13.00
2023-04-16T13:08:02.523Z,12.83
2023-04-16T13:10:30.040Z,13.03
2023-04-16T13:12:57.330Z,12.94
2023-04-16T13:15:24.502Z,13.03
2023-04-16T13:17:51.738Z,13.11
2023-04-16T13:20:18.917Z,13.29
2023-04-16T13:22:46.286Z,13.42
2023-04-16T13:25:13.623Z,13.37
2023-04-16T13:27:40.858Z,13.42
2023-04-16T13:30:08.523Z,13.24
2023-04-16T13:32:35.950Z,13.34
2023-04-16T13:35:03.348Z,13.48
2023-04-16T13:37:30.561Z,13.59
2023-04-16T13:39:57.716Z,13.60
2023-04-16T13:42:24.906Z,13.92
2023-04-16T13:44:54.138Z,14.36
2023-04-16T13:47:21.723Z,14.41
2023-04-16T13:49:49.305Z,14.12
2023-04-16T13:52:16.786Z,13.90
2023-04-16T13:54:43.909Z,13.64
2023-04-16T13:57:12.546Z,13.63
2023-04-16T13:59:39.722Z,13.27
2023-04-16T14:02:07.897Z,13.27
2023-04-16T14:04:35.070Z,13.32
2023-04-16T14:07:03.400Z,13.15
2023-04-16T14:09:30.731Z,13.10
2023-04-16T14:11:57.898Z,13.11
2023-04-16T14:14:25.854Z,12.99
2023-04-16T14:16:55.093Z,13.17
2023-04-16T14:19:22.244Z,13.49
2023-04-16T14:21:49.374Z,13.66
2023-04-16T14:24:16.512Z,13.67
2023-04-16T14:26:44.239Z,13.76
2023-04-16T14:29:11.588Z,14.08
2023-04-16T14:31:38.932Z,14.22
2023-04-16T14:34:06.330Z,14.33
2023-04-16T14:36:33.497Z,14.28
2023-04-16T14:39:00.655Z,14.24
2023-04-16T14:41:27.986Z,14.05
2023-04-16T14:43:55.217Z,13.57
2023-04-16T14:46:22.398Z,13.62
2023-04-16T14:48:49.574Z,13.48
2023-04-16T14:51:16.783Z,13.33
2023-04-16T14:53:43.969Z,13.31
2023-04-16T14:56:12.862Z,13.40
2023-04-16T14:58:40.173Z,13.37
2023-04-16T15:01:07.407Z,13.23
2023-04-16T15:03:35.036Z,13.12
2023-04-16T15:06:02.520Z,13.03
2023-04-16T15:08:29.711Z,13.12
2023-04-16T15:10:56.867Z,13.05
2023-04-16T15:13:24.039Z,12.95
2023-04-16T15:15:51.299Z,12.93
2023-04-16T15:18:18.453Z,12.68
2023-04-16T15:20:45.680Z,12.71
2023-04-16T15:23:12.848Z,12.68
2023-04-16T15:25:42.598Z,12.63
2023-04-16T15:28:09.762Z,12.61
2023-04-16T15:30:40.243Z,12.64
2023-04-16T15:33:08.774Z,12.57
2023-04-16T15:35:36.625Z,12.61
2023-04-16T15:38:03.814Z,12.52
2023-04-16T15:40:31.020Z,12.45
2023-04-16T15:42:58.211Z,12.37
2023-04-16T15:45:25.385Z,12.31
2023-04-16T15:47:52.628Z,12.19
2023-04-16T15:50:20.220Z,12.18
2023-04-16T15:52:47.739Z,12.23
2023-04-16T15:55:17.085Z,12.24
2023-04-16T15:57:44.471Z,12.40
2023-04-16T16:00:17.078Z,12.28
2023-04-16T16:02:46.816Z,12.42
2023-04-16T16:05:15.995Z,12.39
2023-04-16T16:07:43.696Z,12.33
2023-04-16T16:10:12.942Z,12.35
2023-04-16T16:12:41.244Z,12.24
2023-04-16T16:15:10.862Z,12.33
2023-04-16T16:17:38.777Z,12.29
2023-04-16T16:20:09.467Z,12.19
2023-04-16T16:22:38.177Z,12.23
2023-04-16T16:25:05.944Z,12.13
2023-04-16T16:27:33.091Z,12.20
2023-04-16T16:30:01.242Z,12.15
2023-04-16T16:32:28.513Z,12.00
2023-04-16T16:34:56.070Z,12.24
2023-04-16T16:37:23.318Z,12.21
2023-04-16T16:39:50.730Z,12.08
2023-04-16T16:42:18.837Z,12.05
2023-04-16T16:44:49.127Z,12.04
2023-04-16T16:47:16.375Z,11.90
2023-04-16T16:49:45.271Z,11.84
2023-04-16T16:52:12.492Z,11.71
2023-04-16T16:54:39.674Z,11.67
2023-04-16T16:57:07.300Z,11.84
2023-04-16T16:59:34.449Z,11.69
2023-04-16T17:02:01.661Z,11.68
2023-04-16T17:04:28.933Z,11.75
2023-04-16T17:06:56.241Z,11.73
2023-04-16T17:09:23.454Z,11.78
2023-04-16T17:11:50.730Z,11.46
2023-04-16T17:14:18.018Z,11.40
2023-04-16T17:16:49.759Z,11.47
2023-04-16T17:19:17.863Z,11.34
2023-04-16T17:21:45.041Z,11.52
2023-04-16T17:24:12.443Z,11.41
2023-04-16T17:26:41.241Z,11.26
2023-04-16T17:29:08.436Z,11.24
2023-04-16T17:31:35.850Z,11.24
2023-04-16T17:34:05.819Z,11.12
2023-04-16T17:36:33.160Z,11.39
2023-04-16T17:39:00.449Z,11.43
2023-04-16T17:41:27.603Z,11.46
2023-04-16T17:43:54.791Z,11.45
2023-04-16T17:46:21.986Z,11.51
2023-04-16T17:48:49.198Z,11.53
2023-04-16T17:51:16.503Z,11.45
2023-04-16T17:53:44.630Z,11.52
2023-04-16T17:56:13.329Z,11.53
2023-04-16T17:58:40.608Z,11.57
2023-04-16T18:01:07.892Z,11.46
2023-04-16T18:03:35.743Z,11.55
2023-04-16T18:06:03.137Z,11.36
2023-04-16T18:08:30.434Z,11.48
2023-04-16T18:10:57.700Z,11.40
2023-04-16T18:13:25.074Z,11.34
2023-04-16T18:15:53.026Z,11.13
2023-04-16T18:18:21.225Z,11.22
2023-04-16T18:20:48.421Z,11.28
2023-04-16T18:23:15.696Z,11.32
2023-04-16T18:25:43.243Z,11.44
2023-04-16T18:28:13.658Z,11.55
2023-04-16T18:30:41.402Z,11.26
2023-04-16T18:33:37.362Z,11.25
2023-04-16T18:35:55.718Z,11.29
2023-04-16T18:38:22.900Z,11.47
2023-04-16T18:40:50.204Z,11.06
2023-04-16T18:43:17.396Z,11.12
2023-04-16T18:45:44.751Z,10.94
2023-04-16T18:48:11.947Z,11.00
2023-04-16T18:50:39.110Z,11.12
2023-04-16T18:53:06.362Z,11.08
2023-04-16T18:55:33.517Z,11.14
2023-04-16T18:58:00.668Z,11.12
2023-04-16T19:00:27.943Z,11.13
2023-04-16T19:02:55.301Z,11.25
2023-04-16T19:05:22.970Z,11.18
2023-04-16T19:07:50.223Z,11.36
2023-04-16T19:10:17.551Z,11.31
2023-04-16T19:12:44.735Z,11.31
2023-04-16T19:15:12.094Z,11.20
2023-04-16T19:17:40.026Z,11.29
2023-04-16T19:20:11.148Z,11.06
2023-04-16T19:22:38.672Z,11.19
2023-04-16T19:25:07.160Z,11.24
2023-04-16T19:27:34.838Z,11.26
2023-04-16T19:30:02.886Z,10.99
2023-04-16T19:32:30.065Z,11.16
2023-04-16T19:34:57.258Z,11.15
2023-04-16T19:37:24.494Z,11.03
2023-04-16T19:39:51.665Z,11.10
2023-04-16T19:42:18.817Z,11.12
2023-04-16T19:44:46.036Z,11.07
2023-04-16T19:47:13.831Z,11.12
2023-04-16T19:49:43.508Z,11.01
2023-04-16T19:52:10.795Z,11.01
2023-04-16T19:54:38.060Z,11.10
2023-04-16T19:57:05.341Z,11.00
2023-04-16T19:59:33.090Z,10.93
2023-04-16T20:02:00.637Z,11.11
2023-04-16T20:04:28.076Z,11.06
2023-04-16T20:06:55.847Z,11.02
2023-04-16T20:09:25.258Z,10.94
2023-04-16T20:11:52.423Z,11.03
2023-04-16T20:14:19.626Z,11.05
2023-04-16T20:16:46.809Z,10.89
2023-04-16T20:19:17.045Z,10.79
2023-04-16T20:21:45.528Z,10.84
2023-04-16T20:24:12.749Z,10.97
2023-04-16T20:26:39.951Z,11.01
2023-04-16T20:29:07.120Z,10.96
2023-04-16T20:31:34.348Z,10.87
2023-04-16T20:34:01.577Z,10.89
2023-04-16T20:36:28.851Z,10.86
2023-04-16T20:38:56.302Z,10.96
2023-04-16T20:41:25.017Z,10.79
2023-04-16T20:43:52.941Z,10.77
2023-04-16T20:46:24.316Z,10.88
2023-04-16T20:48:51.803Z,10.86
2023-04-16T20:51:19.044Z,10.58
2023-04-16T20:53:46.401Z,10.78
2023-04-16T20:56:14.983Z,10.70
2023-04-16T20:58:42.668Z,10.71
2023-04-16T21:01:09.953Z,10.75
2023-04-16T21:03:37.506Z,10.55
2023-04-16T21:06:04.853Z,10.79
2023-04-16T21:08:32.062Z,10.72
2023-04-16T21:10:59.241Z,10.57
2023-04-16T21:13:26.566Z,10.73
2023-04-16T21:15:53.758Z,10.74
2023-04-16T21:18:20.987Z,10.58
2023-04-16T21:20:48.149Z,10.58
2023-04-16T21:23:16.053Z,10.71
2023-04-16T21:25:43.260Z,10.80
2023-04-16T21:28:10.468Z,10.68
2023-04-16T21:30:38.218Z,10.72
2023-04-16T21:33:05.682Z,10.80
2023-04-16T21:35:33.471Z,10.57
2023-04-16T21:38:00.652Z,10.66
2023-04-16T21:40:27.931Z,10.31
2023-04-16T21:42:55.375Z,10.70
2023-04-16T21:45:23.167Z,10.52
2023-04-16T21:47:50.662Z,10.43
2023-04-16T21:50:18.055Z,10.43
2023-04-16T21:52:46.143Z,10.57
2023-04-16T21:55:14.400Z,10.44
2023-04-16T21:57:41.647Z,10.48
2023-04-16T22:00:13.615Z,10.61
2023-04-16T22:02:42.682Z,10.51
2023-04-16T22:05:11.309Z,10.40
2023-04-16T22:07:38.575Z,10.20
2023-04-16T22:10:06.923Z,10.33
2023-04-16T22:12:37.814Z,10.46
2023-04-16T22:15:07.186Z,10.18
2023-04-16T22:17:34.735Z,10.25
2023-04-16T22:20:06.910Z,10.33
2023-04-16T22:22:34.341Z,10.19
2023-04-16T22:25:01.970Z,10.28
2023-04-16T22:27:29.346Z,10.31
2023-04-16T22:29:56.601Z,10.12
2023-04-16T22:32:23.921Z,9.83
2023-04-16T22:34:52.217Z,9.86
2023-04-16T22:37:19.372Z,10.03
2023-04-16T22:39:46.497Z,10.09
2023-04-16T22:42:13.642Z,9.90
2023-04-16T22:44:40.810Z,9.67
2023-04-16T22:47:07.974Z,9.75
2023-04-16T22:49:35.547Z,9.87
2023-04-16T22:52:03.013Z,9.80
2023-04-16T22:54:30.954Z,9.88
2023-04-16T22:56:58.671Z,9.72
2023-04-16T22:59:25.861Z,9.71
2023-04-16T23:01:53.154Z,9.95
2023-04-16T23:04:20.745Z,9.67
2023-04-16T23:06:47.940Z,9.58
2023-04-16T23:09:15.125Z,9.81
2023-04-16T23:11:42.330Z,9.69
2023-04-16T23:14:09.601Z,9.70
2023-04-16T23:16:36.772Z,9.61
2023-04-16T23:19:03.963Z,9.66
2023-04-16T23:21:32.381Z,9.59
2023-04-16T23:23:59.530Z,9.60
2023-04-16T23:26:26.730Z,9.68
2023-04-16T23:28:53.887Z,9.53
2023-04-16T23:31:21.079Z,9.59
2023-04-16T23:33:48.236Z,9.67
2023-04-16T23:36:15.649Z,9.48
2023-04-16T23:38:42.773Z,9.51
2023-04-16T23:41:09.971Z,9.36
2023-04-16T23:43:39.963Z,9.22
2023-04-16T23:46:07.502Z,9.59
2023-04-16T23:48:34.654Z,9.54
2023-04-16T23:51:01.820Z,8.80
2023-04-16T23:53:28.981Z,9.23
2023-04-16T23:55:56.131Z,9.14
2023-04-16T23:58:23.358Z,9.29
